createdAt,value
2022-09-11T00:00:53.576Z,94.02
2022-09-11T00:03:15.139Z,93.75
2022-09-11T00:05:43.471Z,93.13
2022-09-11T00:08:06.331Z,93.18
2022-09-11T00:10:28.183Z,93.23
2022-09-11T00:12:50.052Z,92.84
2022-09-11T00:15:11.470Z,93.41
2022-09-11T00:17:33.109Z,93.21
2022-09-11T00:19:54.543Z,93.72
2022-09-11T00:22:15.962Z,93.30
2022-09-11T00:24:37.540Z,93.16
2022-09-11T00:26:59.005Z,93.19
2022-09-11T00:29:20.417Z,92.92
2022-09-11T00:31:41.950Z,92.80
2022-09-11T00:34:03.441Z,92.86
2022-09-11T00:36:29.015Z,92.40
2022-09-11T00:38:51.444Z,92.74
2022-09-11T00:41:15.655Z,92.96
2022-09-11T00:44:04.682Z,93.75
2022-09-11T00:46:34.456Z,93.71
2022-09-11T00:48:57.274Z,93.58
2022-09-11T00:51:25.998Z,93.11
2022-09-11T00:53:49.544Z,92.95
2022-09-11T00:56:11.261Z,93.12
2022-09-11T00:58:38.248Z,94.15
2022-09-11T01:01:00.904Z,94.17
2022-09-11T01:03:24.379Z,94.70
2022-09-11T01:05:46.388Z,95.32
2022-09-11T01:08:08.115Z,96.46
2022-09-11T01:11:06.881Z,96.69
2022-09-11T01:13:59.313Z,96.03
2022-09-11T01:16:59.880Z,95.81
2022-09-11T01:19:46.592Z,98.55
2022-09-11T01:22:18.659Z,97.71
2022-09-11T01:25:12.280Z,96.81
2022-09-11T01:27:42.222Z,98.24
2022-09-11T01:30:11.856Z,97.37
2022-09-11T01:32:52.363Z,97.24
2022-09-11T01:35:20.800Z,96.57
2022-09-11T01:37:51.629Z,96.28
2022-09-11T01:40:22.174Z,95.71
2022-09-11T01:42:46.039Z,95.54
2022-09-11T01:45:07.958Z,97.70
2022-09-11T01:47:33.173Z,97.49
2022-09-11T01:50:03.073Z,96.32
2022-09-11T01:52:29.299Z,95.68
2022-09-11T01:55:16.200Z,95.01
2022-09-11T01:57:44.099Z,96.47
2022-09-11T02:00:22.195Z,94.86
2022-09-11T02:02:59.429Z,95.21
2022-09-11T02:05:29.068Z,96.72
2022-09-11T02:08:00.204Z,95.83
2022-09-11T02:10:32.119Z,95.63
2022-09-11T02:13:04.862Z,95.33
2022-09-11T02:15:38.923Z,95.02
2022-09-11T02:18:06.099Z,95.39
2022-09-11T02:20:28.727Z,95.81
2022-09-11T02:22:50.163Z,97.62
2022-09-11T02:25:11.957Z,97.67
2022-09-11T02:27:34.524Z,99.09
2022-09-11T02:29:56.030Z,98.85
2022-09-11T02:32:18.825Z,98.46
2022-09-11T02:34:42.866Z,97.16
2022-09-11T02:37:31.343Z,96.45
2022-09-11T02:40:15.825Z,95.92
2022-09-11T02:43:06.264Z,97.72
2022-09-11T02:45:41.294Z,96.67
2022-09-11T02:48:35.648Z,95.96
2022-09-11T02:51:21.764Z,95.74
2022-09-11T02:53:51.604Z,95.69
2022-09-11T02:56:25.939Z,95.89
2022-09-11T02:58:51.100Z,95.48
2022-09-11T03:01:12.932Z,96.62
2022-09-11T03:03:46.167Z,96.24
2022-09-11T03:06:15.582Z,99.33
2022-09-11T03:08:37.000Z,99.82
2022-09-11T03:10:58.404Z,100.00
2022-09-11T03:13:19.827Z,100.00
2022-09-11T03:15:45.104Z,100.00
2022-09-11T03:18:06.525Z,100.00
2022-09-11T03:20:27.928Z,100.00
2022-09-11T03:22:49.347Z,100.00
2022-09-11T03:25:11.797Z,100.00
2022-09-11T03:27:33.209Z,100.00
2022-09-11T03:29:54.771Z,100.00
2022-09-11T03:32:16.275Z,100.00
2022-09-11T03:34:37.688Z,100.00
2022-09-11T03:37:00.207Z,99.23
2022-09-11T03:39:21.682Z,98.62
2022-09-11T03:41:43.146Z,98.16
2022-09-11T03:44:04.567Z,97.71
2022-09-11T03:46:26.151Z,97.65
2022-09-11T03:48:47.566Z,97.50
2022-09-11T03:51:08.985Z,97.34
2022-09-11T03:53:32.380Z,97.34
2022-09-11T03:55:54.821Z,96.95
2022-09-11T03:58:18.712Z,98.18
2022-09-11T04:00:44.279Z,98.20
2022-09-11T04:03:05.820Z,99.03
2022-09-11T04:05:27.359Z,99.33
2022-09-11T04:07:48.939Z,98.57
2022-09-11T04:10:10.870Z,98.36
2022-09-11T04:12:32.297Z,99.82
2022-09-11T04:14:53.714Z,99.13
2022-09-11T04:17:15.111Z,99.72
2022-09-11T04:19:36.529Z,98.60
2022-09-11T04:21:57.936Z,98.76
2022-09-11T04:24:19.351Z,97.97
2022-09-11T04:26:41.027Z,97.78
2022-09-11T04:29:02.446Z,97.17
2022-09-11T04:31:23.971Z,97.03
2022-09-11T04:33:45.597Z,96.88
2022-09-11T04:36:12.991Z,97.61
2022-09-11T04:38:34.410Z,98.52
2022-09-11T04:41:00.493Z,98.37
2022-09-11T04:43:21.894Z,98.09
2022-09-11T04:45:43.344Z,98.41
2022-09-11T04:48:04.782Z,97.53
2022-09-11T04:50:26.884Z,97.40
2022-09-11T04:52:48.288Z,97.15
2022-09-11T04:55:09.891Z,98.29
2022-09-11T04:57:31.346Z,98.42
2022-09-11T04:59:52.996Z,97.43
2022-09-11T05:02:15.178Z,97.92
2022-09-11T05:04:37.316Z,97.28
2022-09-11T05:06:58.734Z,97.37
2022-09-11T05:09:20.201Z,97.45
2022-09-11T05:11:41.958Z,96.93
2022-09-11T05:14:03.713Z,96.65
2022-09-11T05:16:29.335Z,96.73
2022-09-11T05:18:52.536Z,96.06
2022-09-11T05:21:15.740Z,97.46
2022-09-11T05:23:37.154Z,97.86
2022-09-11T05:26:14.043Z,98.12
2022-09-11T05:28:35.460Z,98.99
2022-09-11T05:30:58.274Z,98.04
2022-09-11T05:33:19.706Z,96.69
2022-09-11T05:35:41.097Z,97.91
2022-09-11T05:38:02.596Z,98.00
2022-09-11T05:40:24.014Z,96.88
2022-09-11T05:42:45.442Z,96.86
2022-09-11T05:45:07.204Z,97.21
2022-09-11T05:47:28.640Z,97.02
2022-09-11T05:49:50.032Z,97.33
2022-09-11T05:52:11.467Z,96.54
2022-09-11T05:54:32.872Z,96.59
2022-09-11T05:56:55.721Z,96.54
2022-09-11T05:59:17.459Z,96.17
2022-09-11T06:01:38.951Z,96.11
2022-09-11T06:04:02.178Z,95.71
2022-09-11T06:06:24.470Z,95.80
2022-09-11T06:08:47.348Z,95.80
2022-09-11T06:11:09.133Z,95.37
2022-09-11T06:13:32.603Z,96.14
2022-09-11T06:15:53.988Z,96.68
2022-09-11T06:18:16.390Z,96.59
2022-09-11T06:20:37.794Z,97.04
2022-09-11T06:23:00.880Z,97.13
2022-09-11T06:25:22.316Z,98.35
2022-09-11T06:27:43.957Z,98.65
2022-09-11T06:30:05.763Z,98.22
2022-09-11T06:32:28.529Z,98.20
2022-09-11T06:34:50.024Z,97.83
2022-09-11T06:37:12.050Z,97.63
2022-09-11T06:39:34.282Z,97.74
2022-09-11T06:41:55.979Z,97.76
2022-09-11T06:44:17.377Z,97.09
2022-09-11T06:46:40.371Z,96.31
2022-09-11T06:49:02.248Z,96.14
2022-09-11T06:51:24.087Z,97.57
2022-09-11T06:53:47.351Z,96.45
2022-09-11T06:56:12.817Z,95.72
2022-09-11T06:58:34.224Z,92.87
2022-09-11T07:01:06.839Z,93.67
2022-09-11T07:03:28.281Z,94.37
2022-09-11T07:05:49.680Z,93.21
2022-09-11T07:08:11.137Z,93.60
2022-09-11T07:10:32.929Z,93.77
2022-09-11T07:12:55.740Z,92.63
2022-09-11T07:15:17.143Z,92.97
2022-09-11T07:17:38.558Z,90.78
2022-09-11T07:20:00.197Z,90.30
2022-09-11T07:22:22.122Z,90.78
2022-09-11T07:24:44.065Z,89.17
2022-09-11T07:27:05.610Z,89.81
2022-09-11T07:29:27.171Z,91.16
2022-09-11T07:31:49.018Z,89.55
2022-09-11T07:34:10.845Z,89.42
2022-09-11T07:36:34.384Z,88.46
2022-09-11T07:38:57.508Z,87.80
2022-09-11T07:41:21.713Z,87.08
2022-09-11T07:43:45.523Z,88.02
2022-09-11T07:46:09.910Z,87.45
2022-09-11T07:48:31.732Z,87.25
2022-09-11T07:51:02.436Z,88.37
2022-09-11T07:53:25.561Z,88.71
2022-09-11T07:55:46.956Z,89.15
2022-09-11T07:58:08.752Z,89.09
2022-09-11T08:00:33.018Z,88.54
2022-09-11T08:02:58.068Z,90.35
2022-09-11T08:05:19.654Z,89.95
2022-09-11T08:07:41.063Z,91.40
2022-09-11T08:10:26.056Z,89.26
2022-09-11T08:12:46.457Z,89.96
2022-09-11T08:15:08.301Z,89.21
2022-09-11T08:17:29.740Z,90.72
2022-09-11T08:19:51.642Z,89.90
2022-09-11T08:22:13.156Z,89.73
2022-09-11T08:24:34.884Z,89.19
2022-09-11T08:26:57.166Z,87.60
2022-09-11T08:29:18.593Z,87.26
2022-09-11T08:31:40.078Z,86.83
2022-09-11T08:34:01.727Z,87.32
2022-09-11T08:36:23.769Z,85.22
2022-09-11T08:38:46.017Z,84.42
2022-09-11T08:41:34.958Z,84.83
2022-09-11T08:44:01.570Z,82.83
2022-09-11T08:46:26.808Z,82.48
2022-09-11T08:49:01.824Z,83.06
2022-09-11T08:51:25.943Z,81.10
2022-09-11T08:53:47.878Z,79.74
2022-09-11T08:56:15.164Z,78.43
2022-09-11T08:59:04.174Z,78.59
2022-09-11T09:01:37.154Z,78.98
2022-09-11T09:04:29.827Z,77.77
2022-09-11T09:07:07.387Z,79.07
2022-09-11T09:09:42.749Z,77.85
2022-09-11T09:12:12.756Z,76.44
2022-09-11T09:15:05.944Z,75.94
2022-09-11T09:17:35.799Z,75.07
2022-09-11T09:20:02.735Z,73.65
2022-09-11T09:22:30.118Z,73.90
2022-09-11T09:25:00.283Z,70.58
2022-09-11T09:27:30.373Z,67.41
2022-09-11T09:29:57.409Z,68.22
2022-09-11T09:32:25.770Z,68.03
2022-09-11T09:34:50.966Z,69.49
2022-09-11T09:37:20.044Z,70.13
2022-09-11T09:39:41.497Z,70.43
2022-09-11T09:42:29.574Z,69.34
2022-09-11T09:44:50.932Z,70.37
2022-09-11T09:47:14.330Z,70.86
2022-09-11T09:49:37.472Z,69.34
2022-09-11T09:52:05.266Z,69.51
2022-09-11T09:54:31.011Z,69.45
2022-09-11T09:57:00.377Z,69.28
2022-09-11T09:59:37.066Z,69.96
2022-09-11T10:01:58.671Z,69.31
2022-09-11T10:04:22.749Z,63.00
2022-09-11T10:06:46.322Z,65.97
2022-09-11T10:09:21.402Z,68.57
2022-09-11T10:11:43.264Z,67.63
2022-09-11T10:14:07.861Z,65.57
2022-09-11T10:16:32.734Z,61.28
2022-09-11T10:18:55.911Z,62.31
2022-09-11T10:21:29.718Z,61.66
2022-09-11T10:24:22.472Z,61.17
2022-09-11T10:26:51.408Z,59.52
2022-09-11T10:29:26.899Z,59.16
2022-09-11T10:31:50.968Z,59.85
2022-09-11T10:34:17.444Z,60.84
2022-09-11T10:36:38.856Z,63.67
2022-09-11T10:39:01.890Z,61.33
2022-09-11T10:41:26.982Z,61.60
2022-09-11T10:44:05.981Z,60.72
2022-09-11T10:46:40.020Z,59.33
2022-09-11T10:49:18.122Z,59.67
2022-09-11T10:51:46.835Z,58.89
2022-09-11T10:54:41.223Z,59.99
2022-09-11T10:57:18.548Z,61.94
2022-09-11T10:59:46.049Z,62.61
2022-09-11T11:02:28.564Z,62.16
2022-09-11T11:04:50.168Z,62.85
2022-09-11T11:07:26.485Z,63.70
2022-09-11T11:09:57.319Z,65.56
2022-09-11T11:12:35.311Z,66.60
2022-09-11T11:15:15.780Z,66.57
2022-09-11T11:17:51.277Z,64.72
2022-09-11T11:20:27.614Z,66.71
2022-09-11T11:23:26.599Z,67.76
2022-09-11T11:26:00.559Z,65.80
2022-09-11T11:28:46.038Z,66.46
2022-09-11T11:31:42.436Z,64.16
2022-09-11T11:34:22.543Z,61.69
2022-09-11T11:36:53.354Z,60.65
2022-09-11T11:39:23.787Z,61.84
2022-09-11T11:42:12.024Z,57.27
2022-09-11T11:44:54.318Z,55.46
2022-09-11T11:47:19.175Z,55.83
2022-09-11T11:49:48.966Z,56.01
2022-09-11T11:52:43.056Z,55.58
2022-09-11T11:55:15.000Z,54.67
2022-09-11T11:57:41.630Z,56.00
2022-09-11T12:00:13.268Z,54.54
2022-09-11T12:02:58.145Z,51.89
2022-09-11T12:05:26.749Z,54.24
2022-09-11T12:07:48.347Z,54.17
2022-09-11T12:10:22.368Z,54.38
2022-09-11T12:12:52.326Z,55.73
2022-09-11T12:15:22.870Z,56.74
2022-09-11T12:17:46.028Z,55.90
2022-09-11T12:20:13.489Z,55.89
2022-09-11T12:22:41.323Z,57.09
2022-09-11T12:25:03.365Z,54.27
2022-09-11T12:27:34.298Z,52.82
2022-09-11T12:30:07.332Z,52.82
2022-09-11T12:32:41.989Z,51.74
2022-09-11T12:35:15.878Z,50.80
2022-09-11T12:37:38.697Z,52.27
2022-09-11T12:40:24.795Z,53.90
2022-09-11T12:42:55.082Z,55.33
2022-09-11T12:45:38.415Z,54.66
2022-09-11T12:48:06.941Z,55.55
2022-09-11T12:50:28.718Z,54.48
2022-09-11T12:53:02.107Z,55.99
2022-09-11T12:55:43.388Z,56.94
2022-09-11T12:58:08.528Z,56.96
2022-09-11T13:00:38.263Z,56.79
2022-09-11T13:03:00.153Z,53.30
2022-09-11T13:05:36.428Z,50.84
2022-09-11T13:08:04.286Z,47.73
2022-09-11T13:10:35.267Z,45.67
2022-09-11T13:12:58.708Z,44.76
2022-09-11T13:15:43.315Z,42.39
2022-09-11T13:18:37.674Z,40.83
2022-09-11T13:21:13.429Z,40.21
2022-09-11T13:23:34.837Z,41.89
2022-09-11T13:25:58.178Z,41.95
2022-09-11T13:28:24.322Z,43.75
2022-09-11T13:30:54.491Z,43.98
2022-09-11T13:33:21.651Z,43.00
2022-09-11T13:35:46.359Z,44.95
2022-09-11T13:38:11.014Z,44.56
2022-09-11T13:40:38.918Z,46.30
2022-09-11T13:43:01.897Z,45.35
2022-09-11T13:45:24.171Z,44.34
2022-09-11T13:47:45.778Z,46.57
2022-09-11T13:50:12.882Z,45.54
2022-09-11T13:52:35.670Z,47.49
2022-09-11T13:54:59.853Z,45.41
2022-09-11T13:57:23.918Z,44.34
2022-09-11T13:59:54.953Z,45.05
2022-09-11T14:02:38.207Z,45.56
2022-09-11T14:05:27.129Z,45.54
2022-09-11T14:07:52.224Z,43.69
2022-09-11T14:10:25.320Z,43.76
2022-09-11T14:13:23.131Z,45.76
2022-09-11T14:15:49.815Z,45.88
2022-09-11T14:18:25.957Z,45.46
2022-09-11T14:20:47.605Z,45.58
2022-09-11T14:23:24.191Z,46.99
2022-09-11T14:26:05.694Z,46.74
2022-09-11T14:28:41.738Z,48.58
2022-09-11T14:31:14.468Z,47.80
2022-09-11T14:33:35.998Z,49.41
2022-09-11T14:36:07.617Z,48.94
2022-09-11T14:38:29.467Z,50.42
2022-09-11T14:41:01.198Z,50.92
2022-09-11T14:43:26.858Z,51.73
2022-09-11T14:45:50.118Z,52.73
2022-09-11T14:48:14.314Z,52.72
2022-09-11T14:50:37.467Z,52.47
2022-09-11T14:52:59.813Z,50.86
2022-09-11T14:55:21.206Z,48.83
2022-09-11T14:57:42.688Z,50.11
2022-09-11T15:00:04.675Z,51.21
2022-09-11T15:02:28.772Z,52.19
2022-09-11T15:04:51.849Z,52.85
2022-09-11T15:07:15.529Z,53.73
2022-09-11T15:09:38.235Z,53.64
2022-09-11T15:11:59.701Z,54.04
2022-09-11T15:14:44.658Z,53.93
2022-09-11T15:17:05.656Z,54.21
2022-09-11T15:19:27.543Z,54.12
2022-09-11T15:21:49.053Z,51.30
2022-09-11T15:24:10.448Z,49.41
2022-09-11T15:26:37.240Z,48.09
2022-09-11T15:28:58.696Z,47.53
2022-09-11T15:31:20.251Z,45.62
2022-09-11T15:33:50.091Z,45.57
2022-09-11T15:36:11.972Z,44.37
2022-09-11T15:38:33.453Z,43.65
2022-09-11T15:40:56.712Z,43.16
2022-09-11T15:43:19.114Z,44.15
2022-09-11T15:45:43.032Z,45.73
2022-09-11T15:48:04.579Z,45.99
2022-09-11T15:50:30.002Z,44.82
2022-09-11T15:52:51.426Z,45.64
2022-09-11T15:55:13.438Z,45.10
2022-09-11T15:57:35.917Z,45.68
2022-09-11T15:59:57.334Z,45.57
2022-09-11T16:02:20.794Z,46.21
2022-09-11T16:04:42.297Z,48.17
2022-09-11T16:07:04.538Z,46.50
2022-09-11T16:09:29.245Z,46.88
2022-09-11T16:11:51.869Z,46.04
2022-09-11T16:14:19.930Z,47.41
2022-09-11T16:16:41.343Z,48.20
2022-09-11T16:19:03.810Z,48.65
2022-09-11T16:21:27.121Z,48.47
2022-09-11T16:23:53.556Z,49.43
2022-09-11T16:26:18.986Z,49.90
2022-09-11T16:28:40.861Z,49.45
2022-09-11T16:31:03.211Z,49.47
2022-09-11T16:33:24.733Z,50.04
2022-09-11T16:35:57.221Z,49.93
2022-09-11T16:38:18.645Z,50.69
2022-09-11T16:40:40.053Z,51.32
2022-09-11T16:43:03.312Z,51.98
2022-09-11T16:45:24.823Z,50.91
2022-09-11T16:47:46.730Z,51.86
2022-09-11T16:50:08.746Z,51.90
2022-09-11T16:52:30.339Z,53.11
2022-09-11T16:54:52.269Z,53.21
2022-09-11T16:57:13.699Z,53.51
2022-09-11T16:59:35.199Z,54.05
2022-09-11T17:01:57.381Z,54.24
2022-09-11T17:04:18.802Z,54.03
2022-09-11T17:06:40.257Z,54.49
2022-09-11T17:09:03.975Z,54.83
2022-09-11T17:11:26.942Z,55.35
2022-09-11T17:13:49.154Z,55.77
2022-09-11T17:16:16.777Z,55.04
2022-09-11T17:18:39.292Z,55.18
2022-09-11T17:21:09.754Z,55.41
2022-09-11T17:23:32.448Z,55.69
2022-09-11T17:25:53.867Z,56.46
2022-09-11T17:28:15.244Z,56.05
2022-09-11T17:30:39.517Z,56.17
2022-09-11T17:33:00.902Z,55.90
2022-09-11T17:35:22.299Z,56.07
2022-09-11T17:37:45.264Z,56.22
2022-09-11T17:40:07.679Z,56.44
2022-09-11T17:42:30.275Z,56.78
2022-09-11T17:44:52.589Z,57.00
2022-09-11T17:47:14.132Z,57.31
2022-09-11T17:49:35.524Z,57.30
2022-09-11T17:51:58.078Z,57.57
2022-09-11T17:54:19.477Z,57.86
2022-09-11T17:56:42.379Z,58.28
2022-09-11T17:59:03.832Z,59.96
2022-09-11T18:01:27.135Z,61.02
2022-09-11T18:03:53.504Z,60.44
2022-09-11T18:06:19.279Z,60.19
2022-09-11T18:08:40.766Z,60.18
2022-09-11T18:11:02.359Z,60.20
2022-09-11T18:13:23.813Z,60.89
2022-09-11T18:15:45.230Z,61.18
2022-09-11T18:18:06.633Z,62.70
2022-09-11T18:20:28.217Z,62.68
2022-09-11T18:22:50.287Z,63.52
2022-09-11T18:25:11.783Z,63.95
2022-09-11T18:27:33.190Z,65.18
2022-09-11T18:29:55.013Z,64.46
2022-09-11T18:32:16.452Z,65.74
2022-09-11T18:34:38.348Z,66.89
2022-09-11T18:37:00.559Z,66.08
2022-09-11T18:39:22.147Z,67.92
2022-09-11T18:41:44.916Z,69.88
2022-09-11T18:44:17.409Z,69.45
2022-09-11T18:46:41.674Z,69.14
2022-09-11T18:49:04.113Z,69.91
2022-09-11T18:51:29.867Z,69.22
2022-09-11T18:53:51.962Z,70.43
2022-09-11T18:56:13.484Z,69.73
2022-09-11T18:58:37.476Z,70.09
2022-09-11T19:01:00.534Z,69.63
2022-09-11T19:03:22.697Z,71.28
2022-09-11T19:05:44.107Z,70.59
2022-09-11T19:08:05.501Z,70.32
2022-09-11T19:10:27.261Z,70.90
2022-09-11T19:12:48.695Z,70.72
2022-09-11T19:15:10.870Z,70.41
2022-09-11T19:17:32.771Z,70.67
2022-09-11T19:19:54.437Z,72.88
2022-09-11T19:22:15.834Z,72.82
2022-09-11T19:24:38.220Z,72.47
2022-09-11T19:27:00.249Z,74.29
2022-09-11T19:29:22.627Z,73.14
2022-09-11T19:31:44.064Z,72.83
2022-09-11T19:34:06.309Z,73.01
2022-09-11T19:36:30.258Z,73.44
2022-09-11T19:38:55.085Z,74.28
2022-09-11T19:41:20.414Z,73.21
2022-09-11T19:43:42.910Z,73.01
2022-09-11T19:46:10.837Z,73.23
2022-09-11T19:48:34.098Z,74.59
2022-09-11T19:50:55.520Z,73.80
2022-09-11T19:53:17.060Z,73.58
2022-09-11T19:55:38.658Z,73.16
2022-09-11T19:58:00.547Z,72.97
2022-09-11T20:00:22.816Z,72.86
2022-09-11T20:02:45.279Z,73.29
2022-09-11T20:05:07.189Z,73.59
2022-09-11T20:07:28.624Z,75.04
2022-09-11T20:09:50.170Z,74.54
2022-09-11T20:12:11.565Z,74.33
2022-09-11T20:14:32.999Z,75.17
2022-09-11T20:16:54.456Z,75.34
2022-09-11T20:19:17.231Z,74.52
2022-09-11T20:21:38.695Z,75.67
2022-09-11T20:24:00.521Z,75.34
2022-09-11T20:26:27.828Z,74.54
2022-09-11T20:28:56.780Z,75.47
2022-09-11T20:31:23.640Z,74.69
2022-09-11T20:33:46.155Z,74.47
2022-09-11T20:36:07.723Z,74.43
2022-09-11T20:38:29.135Z,74.15
2022-09-11T20:40:50.547Z,73.77
2022-09-11T20:43:12.488Z,73.88
2022-09-11T20:45:34.971Z,74.02
2022-09-11T20:47:56.383Z,74.77
2022-09-11T20:50:18.211Z,75.28
2022-09-11T20:52:41.046Z,75.34
2022-09-11T20:55:02.485Z,75.41
2022-09-11T20:57:23.949Z,76.15
2022-09-11T20:59:45.534Z,76.02
2022-09-11T21:02:06.965Z,75.51
2022-09-11T21:04:28.435Z,75.25
2022-09-11T21:06:50.544Z,75.54
2022-09-11T21:09:12.101Z,75.25
2022-09-11T21:11:35.069Z,75.13
2022-09-11T21:13:56.837Z,75.91
2022-09-11T21:16:19.854Z,76.32
2022-09-11T21:18:46.582Z,75.76
2022-09-11T21:21:08.059Z,75.82
2022-09-11T21:23:29.881Z,75.74
2022-09-11T21:25:52.770Z,77.28
2022-09-11T21:28:14.677Z,78.37
2022-09-11T21:30:38.476Z,77.10
2022-09-11T21:32:59.897Z,76.46
2022-09-11T21:35:21.382Z,75.72
2022-09-11T21:37:42.769Z,75.46
2022-09-11T21:40:05.056Z,75.36
2022-09-11T21:42:26.548Z,75.48
2022-09-11T21:44:48.013Z,76.73
2022-09-11T21:47:09.410Z,76.29
2022-09-11T21:49:30.819Z,75.74
2022-09-11T21:51:52.240Z,75.59
2022-09-11T21:54:13.654Z,76.76
2022-09-11T21:56:35.068Z,76.67
2022-09-11T21:58:56.914Z,76.68
2022-09-11T22:01:19.998Z,76.29
2022-09-11T22:03:41.496Z,75.93
2022-09-11T22:06:08.095Z,75.58
2022-09-11T22:08:29.531Z,75.55
2022-09-11T22:10:51.866Z,75.37
2022-09-11T22:13:13.385Z,77.01
2022-09-11T22:15:34.793Z,76.97
2022-09-11T22:17:56.428Z,77.19
2022-09-11T22:20:18.025Z,76.66
2022-09-11T22:22:40.649Z,76.08
2022-09-11T22:25:02.043Z,76.57
2022-09-11T22:27:23.479Z,76.79
2022-09-11T22:29:47.043Z,76.51
2022-09-11T22:32:08.588Z,76.31
2022-09-11T22:34:32.958Z,76.11
2022-09-11T22:36:54.404Z,76.21
2022-09-11T22:39:15.964Z,76.68
2022-09-11T22:41:37.372Z,77.33
2022-09-11T22:43:58.833Z,76.73
2022-09-11T22:46:21.577Z,77.06
2022-09-11T22:48:43.886Z,76.54
2022-09-11T22:51:05.568Z,76.54
2022-09-11T22:53:28.648Z,76.33
2022-09-11T22:55:50.486Z,76.06
2022-09-11T22:58:12.820Z,76.04
2022-09-11T23:00:34.508Z,75.77
2022-09-11T23:02:55.931Z,78.16
2022-09-11T23:05:36.023Z,78.27
2022-09-11T23:07:57.445Z,77.34
2022-09-11T23:10:23.659Z,77.04
2022-09-11T23:12:45.501Z,76.46
2022-09-11T23:15:07.683Z,76.25
2022-09-11T23:17:29.113Z,76.24
2022-09-11T23:19:50.521Z,76.54
2022-09-11T23:22:11.929Z,77.50
2022-09-11T23:24:33.344Z,78.90
2022-09-11T23:26:54.773Z,78.36
2022-09-11T23:29:16.188Z,78.29
2022-09-11T23:31:37.762Z,78.18
2022-09-11T23:34:04.307Z,77.71
2022-09-11T23:36:26.607Z,77.34
2022-09-11T23:38:49.066Z,77.36
2022-09-11T23:41:10.585Z,77.41
2022-09-11T23:43:32.014Z,78.21
2022-09-11T23:45:53.430Z,78.27
2022-09-11T23:48:14.894Z,79.69
2022-09-11T23:50:36.512Z,79.12
2022-09-11T23:52:57.915Z,80.78
2022-09-11T23:55:19.394Z,80.53
2022-09-11T23:57:40.839Z,79.97
